Barisal, Bangladesh
Current Conditions -  °F | °C
As of 8:20 AM on Thursday 23 Oct 2014 (Local Time) from VGHS Reporting Station
Haze Haze  
Wind Chill: 81°   Ceiling: Unl
Heat Index: 84°   Visibility: 2.5mi
Dew Point: 70°   Wind: 0mph
Humidity: 70%   Direction: NA
Pressure: 29.91"   Gusts: NA
Location:  22.7°N, 90.37°E
Report Text: VGHS 230220Z 00000KT 4000 HZ FEW015 27/21 Q1013 NOSIG
Loading
Personal Weather Stations






























Interactive Weather Map
Tropical Storm Tracking
New forecast layout! Learn more

10-Day Weather Forecast

Advertisements
Track Severe Weather on mobile